Time;durP1;ratioP1;P1;durP2;ratioP2;P2;SDS_P1;SDS_P2;PMS_P1;PMS_P2;Temp;Humidity;BMP_temperature;BMP_pressure;BME280_temperature;BME280_humidity;BME280_pressure;Samples;Min_cycle;Max_cycle;Signal;HPM_P1;HPM_P2
2023/07/17 00:01:34;;;;;;;5.53;3.70;;;20.20;99.90;;;;;;4943904;29;20051;-65
2023/07/17 00:04:06;;;;;;;4.40;3.90;;;20.10;99.90;;;;;;4935553;29;20043;-65
2023/07/17 00:06:38;;;;;;;3.33;3.03;;;20.20;99.90;;;;;;4951721;29;20082;-65
2023/07/17 00:09:11;;;;;;;3.75;2.72;;;20.30;99.90;;;;;;4949810;29;20039;-64
2023/07/17 00:11:38;;;;;;;4.18;3.40;;;20.30;99.90;;;;;;4946222;29;20102;-65
2023/07/17 00:14:09;;;;;;;3.92;3.30;;;20.40;99.90;;;;;;4944535;29;20043;-64
2023/07/17 00:16:41;;;;;;;4.93;3.78;;;20.40;99.90;;;;;;4943691;29;20422;-64
2023/07/17 00:19:13;;;;;;;6.05;3.85;;;20.50;99.90;;;;;;4944819;29;20098;-64
2023/07/17 00:21:45;;;;;;;5.30;3.75;;;20.50;99.90;;;;;;4941228;29;20039;-66
2023/07/17 00:24:12;;;;;;;5.78;3.58;;;20.60;99.90;;;;;;4922358;29;20048;-68
2023/07/17 00:26:39;;;;;;;4.32;3.88;;;20.60;99.90;;;;;;4935281;29;20032;-69
2023/07/17 00:29:23;;;;;;;3.88;3.20;;;20.60;99.90;;;;;;4936946;29;20126;-68
2023/07/17 00:31:55;;;;;;;3.25;2.90;;;20.50;99.90;;;;;;4949331;29;20473;-68
2023/07/17 00:34:27;;;;;;;3.65;3.30;;;20.40;99.90;;;;;;4949282;29;20067;-68
2023/07/17 00:36:54;;;;;;;5.82;3.40;;;20.30;99.90;;;;;;4947125;29;20550;-68
2023/07/17 00:39:25;;;;;;;3.90;3.50;;;20.30;99.90;;;;;;4936032;29;20069;-68
2023/07/17 00:41:58;;;;;;;5.65;3.38;;;20.20;99.90;;;;;;4942495;29;20139;-68
2023/07/17 00:44:31;;;;;;;5.10;3.53;;;20.20;99.90;;;;;;4950058;29;20062;-68
2023/07/17 00:46:58;;;;;;;3.97;3.38;;;20.20;99.90;;;;;;4935010;29;20078;-67
2023/07/17 00:49:33;;;;;;;4.32;3.53;;;20.20;99.90;;;;;;4919892;29;20546;-68
2023/07/17 00:52:05;;;;;;;4.82;3.80;;;20.10;99.90;;;;;;4937260;29;20040;-68
2023/07/17 00:54:40;;;;;;;3.83;3.20;;;20.10;99.90;;;;;;4923974;29;20549;-67
2023/07/17 00:57:13;;;;;;;6.45;4.35;;;20.10;99.90;;;;;;4939200;29;20050;-68
2023/07/17 00:59:46;;;;;;;4.10;3.67;;;20.10;99.90;;;;;;4926347;29;20568;-67
2023/07/17 01:02:19;;;;;;;5.90;4.15;;;20.10;99.90;;;;;;4943800;29;20141;-69
2023/07/17 01:04:51;;;;;;;;;;;20.00;99.90;;;;;;4927983;29;20047;-69
2023/07/17 01:07:23;;;;;;;4.40;4.00;;;19.80;99.90;;;;;;4923004;29;19922;-68
2023/07/17 01:09:55;;;;;;;5.93;3.50;;;19.80;99.90;;;;;;4938352;29;20130;-67
2023/07/17 01:12:27;;;;;;;3.97;3.58;;;19.90;99.90;;;;;;4948924;29;20063;-67
2023/07/17 01:14:54;;;;;;;4.95;3.90;;;20.00;99.90;;;;;;4935388;29;20047;-68
2023/07/17 01:17:26;;;;;;;5.97;3.80;;;20.00;99.90;;;;;;4932420;29;20079;-68
2023/07/17 01:19:59;;;;;;;4.40;3.83;;;19.90;99.90;;;;;;4946693;29;20050;-68
2023/07/17 01:22:38;;;;;;;5.47;3.83;;;19.80;99.90;;;;;;4943102;29;20430;-67
2023/07/17 01:25:06;;;;;;;8.45;4.80;;;19.80;99.90;;;;;;4943000;29;20053;-68
2023/07/17 01:27:38;;;;;;;7.90;5.78;;;19.80;99.90;;;;;;4942338;29;20039;-68
2023/07/17 01:30:10;;;;;;;8.15;5.85;;;19.80;99.90;;;;;;4932643;29;20044;-68
2023/07/17 01:32:42;;;;;;;8.45;5.38;;;19.80;99.90;;;;;;4928455;29;20051;-69
2023/07/17 01:35:14;;;;;;;8.05;5.95;;;19.70;99.90;;;;;;4936438;29;20043;-69
2023/07/17 01:37:42;;;;;;;7.80;6.18;;;19.70;99.90;;;;;;4943237;28;20046;-69
2023/07/17 01:40:15;;;;;;;;;;;19.60;99.90;;;;;;4949354;29;20054;-69
2023/07/17 01:42:42;;;;;;;6.90;5.13;;;19.60;99.90;;;;;;4930892;29;19927;-68
2023/07/17 01:45:14;;;;;;;7.30;5.50;;;19.60;99.90;;;;;;4943340;29;20067;-68
2023/07/17 01:47:49;;;;;;;6.45;5.15;;;19.60;99.90;;;;;;4929032;29;20040;-68
2023/07/17 01:50:21;;;;;;;9.35;5.63;;;19.70;99.90;;;;;;4920572;29;20398;-69
2023/07/17 01:52:52;;;;;;;7.32;5.50;;;19.70;99.90;;;;;;4930852;29;20729;-69
2023/07/17 01:55:25;;;;;;;5.78;4.65;;;19.70;99.90;;;;;;4934339;29;20051;-69
2023/07/17 01:58:00;;;;;;;7.95;4.80;;;19.60;99.90;;;;;;4935783;29;20057;-69
2023/07/17 02:00:27;;;;;;;8.70;5.25;;;19.50;99.90;;;;;;4950893;29;20442;-68
2023/07/17 02:02:54;;;;;;;10.85;5.88;;;19.40;99.90;;;;;;4949638;29;20047;-68
2023/07/17 02:05:26;;;;;;;6.70;5.00;;;19.30;99.90;;;;;;4946155;29;20062;-68
2023/07/17 02:07:58;;;;;;;7.38;4.97;;;19.30;99.90;;;;;;4941737;29;20359;-68
2023/07/17 02:10:31;;;;;;;5.38;4.85;;;19.20;99.90;;;;;;4943492;29;20071;-68
2023/07/17 02:13:03;;;;;;;5.97;4.90;;;19.30;99.90;;;;;;4939252;29;20050;-68
2023/07/17 02:15:35;;;;;;;5.60;5.00;;;19.30;99.90;;;;;;4922321;29;20050;-68
2023/07/17 02:18:07;;;;;;;5.88;4.50;;;19.40;99.90;;;;;;4934098;29;20036;-68
2023/07/17 02:20:39;;;;;;;5.03;4.53;;;19.40;99.90;;;;;;4935459;29;20058;-68
2023/07/17 02:23:06;;;;;;;6.40;5.00;;;19.40;99.90;;;;;;4942761;29;20493;-68
2023/07/17 02:25:38;;;;;;;5.82;4.72;;;19.50;99.90;;;;;;4925181;29;20043;-68
2023/07/17 02:28:05;;;;;;;6.30;4.75;;;19.40;99.90;;;;;;4939405;29;20071;-68
2023/07/17 02:30:37;;;;;;;8.60;5.03;;;19.40;99.90;;;;;;4941466;29;20060;-68
2023/07/17 02:33:09;;;;;;;7.25;4.95;;;19.30;99.90;;;;;;4934144;29;20048;-68
2023/07/17 02:35:41;;;;;;;9.95;6.53;;;19.20;99.90;;;;;;4944485;29;20663;-68
2023/07/17 02:38:13;;;;;;;10.10;6.30;;;19.20;99.90;;;;;;4931704;29;20059;-68
2023/07/17 02:40:48;;;;;;;8.00;6.10;;;19.10;99.90;;;;;;4924173;29;20051;-68
2023/07/17 02:43:19;;;;;;;8.48;5.82;;;19.10;99.90;;;;;;4947969;29;20039;-68
2023/07/17 02:45:51;;;;;;;6.78;5.63;;;19.20;99.90;;;;;;4930103;29;20134;-68
2023/07/17 02:48:23;;;;;;;6.95;5.85;;;19.30;99.90;;;;;;4927324;29;20044;-69
2023/07/17 02:50:55;;;;;;;7.20;5.53;;;19.30;99.90;;;;;;4944200;29;20046;-69
2023/07/17 02:53:22;;;;;;;7.45;5.60;;;19.30;99.90;;;;;;4941026;29;20070;-68
2023/07/17 02:55:54;;;;;;;6.53;5.38;;;19.40;99.90;;;;;;4927311;29;20040;-68
2023/07/17 02:58:26;;;;;;;9.35;6.55;;;19.40;99.90;;;;;;4929126;29;20048;-69
2023/07/17 03:00:52;;;;;;;6.88;5.20;;;19.30;99.90;;;;;;4947286;29;20522;-68
2023/07/17 03:03:24;;;;;;;6.38;5.38;;;19.40;99.90;;;;;;4950832;29;20138;-68
2023/07/17 03:05:57;;;;;;;7.05;5.68;;;19.30;99.90;;;;;;4923278;29;20106;-68
2023/07/17 03:08:29;;;;;;;7.82;5.90;;;19.30;99.90;;;;;;4939553;29;20054;-68
2023/07/17 03:11:03;;;;;;;5.80;5.03;;;19.20;99.90;;;;;;4926115;29;20066;-68
2023/07/17 03:13:35;;;;;;;7.55;6.07;;;19.20;99.90;;;;;;4941006;29;20052;-68
2023/07/17 03:16:07;;;;;;;5.80;5.18;;;19.20;99.90;;;;;;4942319;29;20049;-68
2023/07/17 03:18:39;;;;;;;6.63;5.25;;;19.20;99.90;;;;;;4944814;29;20407;-68
2023/07/17 03:21:11;;;;;;;7.97;5.45;;;19.10;99.90;;;;;;4938039;29;20138;-68
2023/07/17 03:23:43;;;;;;;6.57;5.10;;;19.10;99.90;;;;;;4933141;29;20591;-68
2023/07/17 03:26:10;;;;;;;6.20;5.53;;;19.00;99.90;;;;;;4942062;29;20035;-66
2023/07/17 03:28:41;;;;;;;5.70;5.10;;;18.90;99.90;;;;;;4935506;29;20062;-65
2023/07/17 03:31:08;;;;;;;7.03;5.60;;;18.90;99.90;;;;;;4948983;29;20039;-69
2023/07/17 03:33:41;;;;;;;6.07;5.40;;;18.80;99.90;;;;;;4946867;29;20039;-69
2023/07/17 03:36:13;;;;;;;7.30;5.25;;;18.90;99.90;;;;;;4939616;29;20067;-68
2023/07/17 03:38:45;;;;;;;7.25;5.75;;;18.90;99.90;;;;;;4941845;29;20051;-69
2023/07/17 03:41:20;;;;;;;7.78;5.13;;;18.70;99.90;;;;;;4942990;29;20044;-68
2023/07/17 03:43:47;;;;;;;9.85;6.47;;;18.60;99.90;;;;;;4922169;29;20048;-69
2023/07/17 03:46:16;;;;;;;7.38;5.57;;;18.60;99.90;;;;;;4935750;29;20039;-69
2023/07/17 03:48:44;;;;;;;6.93;6.13;;;18.60;99.90;;;;;;4933987;29;20439;-68
2023/07/17 03:51:16;;;;;;;9.23;5.93;;;18.50;99.90;;;;;;4932918;29;20639;-68
2023/07/17 03:53:50;;;;;;;10.95;5.85;;;18.50;99.90;;;;;;4934838;29;20046;-69
2023/07/17 03:56:17;;;;;;;7.32;5.95;;;18.50;99.90;;;;;;4946377;29;20048;-69
2023/07/17 03:58:49;;;;;;;9.35;5.90;;;18.40;99.90;;;;;;4931524;29;20606;-69
2023/07/17 04:01:21;;;;;;;8.90;5.80;;;18.30;99.90;;;;;;4927506;29;20478;-65
2023/07/17 04:03:53;;;;;;;6.68;5.20;;;18.30;99.90;;;;;;4937197;29;20067;-66
2023/07/17 04:06:25;;;;;;;7.03;5.20;;;18.20;99.90;;;;;;4930448;29;20098;-65
2023/07/17 04:08:57;;;;;;;7.50;5.50;;;18.20;99.90;;;;;;4952156;29;20043;-67
2023/07/17 04:11:29;;;;;;;7.80;5.25;;;18.20;99.90;;;;;;4941165;29;20142;-65
2023/07/17 04:14:00;;;;;;;9.38;5.00;;;18.10;99.90;;;;;;4923855;29;20067;-65
2023/07/17 04:16:36;;;;;;;7.70;4.22;;;18.00;99.90;;;;;;4944308;29;20518;-65
2023/07/17 04:19:03;;;;;;;7.10;4.40;;;18.00;99.90;;;;;;4936888;29;20142;-66
2023/07/17 04:21:31;;;;;;;6.05;4.45;;;18.00;99.90;;;;;;4942744;29;20514;-66
2023/07/17 04:24:03;;;;;;;7.40;4.50;;;18.00;99.90;;;;;;4929261;29;20039;-66
2023/07/17 04:26:43;;;;;;;6.18;4.63;;;18.10;99.90;;;;;;4931347;29;20098;-66
2023/07/17 04:29:15;;;;;;;6.75;4.22;;;18.20;99.90;;;;;;4932703;29;20396;-66
2023/07/17 04:31:47;;;;;;;8.65;4.32;;;18.30;99.90;;;;;;4946175;29;20036;-65
2023/07/17 04:34:20;;;;;;;8.77;5.00;;;18.40;99.90;;;;;;4928369;29;20099;-65
2023/07/17 04:36:48;;;;;;;5.72;4.30;;;18.50;99.90;;;;;;4911290;29;20043;-65
2023/07/17 04:39:15;;;;;;;6.78;4.20;;;18.40;99.90;;;;;;4947966;29;20043;-65
2023/07/17 04:41:42;;;;;;;5.25;4.47;;;18.40;99.90;;;;;;4933144;29;20138;-65
2023/07/17 04:44:16;;;;;;;9.25;5.13;;;18.40;99.90;;;;;;4932956;29;20118;-67
2023/07/17 04:46:49;;;;;;;7.60;3.95;;;18.30;99.90;;;;;;4953252;29;20122;-65
2023/07/17 04:49:21;;;;;;;9.00;5.10;;;18.20;99.90;;;;;;4935662;29;20046;-64
2023/07/17 04:51:48;;;;;;;6.40;4.45;;;18.20;99.90;;;;;;4945354;29;20130;-64
2023/07/17 04:54:20;;;;;;;5.53;4.25;;;18.20;99.90;;;;;;4944927;29;20130;-65
2023/07/17 04:56:52;;;;;;;5.82;4.03;;;18.40;99.90;;;;;;4919667;29;20601;-65
2023/07/17 04:59:24;;;;;;;5.20;3.67;;;18.40;99.90;;;;;;4933078;29;20055;-65
2023/07/17 05:01:56;;;;;;;8.18;4.53;;;18.30;99.90;;;;;;4936123;29;20519;-65
2023/07/17 05:04:29;;;;;;;7.28;4.10;;;18.30;99.90;;;;;;4945686;29;20049;-65
2023/07/17 05:07:01;;;;;;;6.70;4.50;;;18.30;99.90;;;;;;4945519;29;20039;-66
2023/07/17 05:09:35;;;;;;;7.15;3.88;;;18.40;99.90;;;;;;4928830;29;20047;-65
2023/07/17 05:12:02;;;;;;;4.95;3.70;;;18.30;99.90;;;;;;4946314;29;20039;-65
2023/07/17 05:14:35;;;;;;;6.15;4.80;;;18.30;99.90;;;;;;4945109;29;20127;-65
2023/07/17 05:17:08;;;;;;;6.40;3.85;;;18.40;99.90;;;;;;4943395;29;20054;-65
2023/07/17 05:19:40;;;;;;;5.90;3.83;;;18.40;99.90;;;;;;4942651;29;20051;-65
2023/07/17 05:22:12;;;;;;;7.07;4.20;;;18.50;99.90;;;;;;4932219;29;20053;-65
2023/07/17 05:24:45;;;;;;;6.35;4.10;;;18.60;99.90;;;;;;4922452;29;20055;-65
2023/07/17 05:27:17;;;;;;;5.22;4.22;;;18.60;99.90;;;;;;4940404;29;20466;-65
2023/07/17 05:29:49;;;;;;;9.38;4.80;;;18.60;99.90;;;;;;4942304;29;20084;-65
2023/07/17 05:32:21;;;;;;;7.32;4.38;;;18.50;99.90;;;;;;4928667;29;20048;-65
2023/07/17 05:34:54;;;;;;;7.35;4.57;;;18.40;99.90;;;;;;4941145;29;20426;-65
2023/07/17 05:37:27;;;;;;;7.65;4.70;;;18.30;99.90;;;;;;4948925;29;20448;-65
2023/07/17 05:40:02;;;;;;;5.90;4.18;;;18.40;99.90;;;;;;4936607;29;20055;-65
2023/07/17 05:42:34;;;;;;;6.82;5.32;;;18.40;99.90;;;;;;4933802;29;20150;-65
2023/07/17 05:45:07;;;;;;;6.15;4.22;;;18.40;99.90;;;;;;4935927;29;20120;-65
2023/07/17 05:47:40;;;;;;;5.82;3.80;;;18.40;99.90;;;;;;4949280;29;20043;-65
2023/07/17 05:50:12;;;;;;;5.70;3.90;;;18.50;99.90;;;;;;4941730;29;20079;-65
2023/07/17 05:52:44;;;;;;;3.90;3.47;;;18.40;99.90;;;;;;4943031;29;20530;-65
2023/07/17 05:55:16;;;;;;;5.05;3.50;;;18.50;99.90;;;;;;4942531;29;20145;-65
2023/07/17 05:57:52;;;;;;;5.65;3.97;;;18.60;99.90;;;;;;4929117;29;20099;-65
2023/07/17 06:00:25;;;;;;;4.90;3.63;;;18.60;99.90;;;;;;4938258;29;20138;-65
2023/07/17 06:02:57;;;;;;;6.13;3.83;;;18.70;99.90;;;;;;4950612;29;20118;-66
2023/07/17 06:05:24;;;;;;;5.07;3.75;;;18.80;99.90;;;;;;4949918;29;20047;-65
2023/07/17 06:07:50;;;;;;;4.93;3.85;;;19.00;99.90;;;;;;4937244;29;20127;-65
2023/07/17 06:10:22;;;;;;;4.85;3.33;;;19.10;99.90;;;;;;4939413;29;20570;-65
2023/07/17 06:12:54;;;;;;;7.05;3.55;;;19.10;99.90;;;;;;4941125;29;20125;-65
2023/07/17 06:15:21;;;;;;;4.82;3.58;;;19.20;99.90;;;;;;4943232;29;20402;-65
2023/07/17 06:17:52;;;;;;;7.53;3.45;;;19.30;99.90;;;;;;4943299;29;20054;-65
2023/07/17 06:20:24;;;;;;;5.20;3.60;;;19.30;99.90;;;;;;4940780;29;20043;-65
2023/07/17 06:22:56;;;;;;;9.25;3.55;;;19.30;99.90;;;;;;4933662;29;20518;-65
2023/07/17 06:25:28;;;;;;;6.18;3.38;;;19.40;99.90;;;;;;4941695;29;20054;-65
2023/07/17 06:28:00;;;;;;;4.40;3.45;;;19.50;99.90;;;;;;4933274;29;20061;-65
2023/07/17 06:30:32;;;;;;;5.85;3.17;;;19.50;99.90;;;;;;4951398;29;20043;-65
2023/07/17 06:33:04;;;;;;;3.88;3.10;;;19.40;99.90;;;;;;4949229;29;20392;-65
2023/07/17 06:35:36;;;;;;;5.07;3.00;;;19.40;99.90;;;;;;4942556;29;20709;-65
2023/07/17 06:38:08;;;;;;;4.93;4.30;;;19.40;99.90;;;;;;4943415;29;20287;-65
2023/07/17 06:40:40;;;;;;;4.82;3.22;;;19.40;99.90;;;;;;4945618;29;20043;-65
2023/07/17 06:43:12;;;;;;;6.90;3.42;;;19.40;99.90;;;;;;4940222;29;20039;-64
2023/07/17 06:45:44;;;;;;;4.80;3.55;;;19.40;99.90;;;;;;4940081;29;20114;-65
2023/07/17 06:48:16;;;;;;;4.18;3.20;;;19.40;99.90;;;;;;4938815;29;20050;-67
2023/07/17 06:50:47;;;;;;;6.35;3.70;;;19.40;99.90;;;;;;4946711;29;20061;-67
2023/07/17 06:53:19;;;;;;;5.38;3.30;;;19.50;99.90;;;;;;4937517;29;20426;-67
2023/07/17 06:56:00;;;;;;;4.95;3.50;;;19.50;99.90;;;;;;4948778;29;20059;-67
2023/07/17 06:58:27;;;;;;;4.13;2.88;;;19.50;99.90;;;;;;4940152;29;20085;-67
2023/07/17 07:01:00;;;;;;;8.07;3.33;;;19.50;99.90;;;;;;4943342;29;20047;-67
2023/07/17 07:03:32;;;;;;;6.07;4.22;;;19.50;99.90;;;;;;4947490;29;20302;-67
2023/07/17 07:06:04;;;;;;;6.53;2.95;;;19.60;99.90;;;;;;4947552;29;20043;-67
2023/07/17 07:08:36;;;;;;;4.03;3.20;;;19.70;99.90;;;;;;4940204;29;20482;-67
2023/07/17 07:11:10;;;;;;;4.03;3.33;;;19.80;99.90;;;;;;4934051;29;20054;-68
2023/07/17 07:13:44;;;;;;;6.00;4.00;;;19.90;99.90;;;;;;4948262;29;20044;-68
2023/07/17 07:16:16;;;;;;;5.47;3.20;;;19.90;99.90;;;;;;4935749;29;20043;-67
2023/07/17 07:18:48;;;;;;;7.10;4.07;;;20.00;99.90;;;;;;4946730;29;20403;-67
2023/07/17 07:21:20;;;;;;;6.72;3.50;;;20.00;99.90;;;;;;4945317;29;20293;-68
2023/07/17 07:23:52;;;;;;;7.28;3.65;;;20.00;99.90;;;;;;4945873;29;20075;-68
2023/07/17 07:26:24;;;;;;;4.18;3.63;;;20.00;99.90;;;;;;4943136;29;20044;-67
2023/07/17 07:28:55;;;;;;;8.23;3.78;;;20.10;99.90;;;;;;4939201;29;20058;-68
2023/07/17 07:31:27;;;;;;;5.20;4.22;;;20.20;99.90;;;;;;4945550;29;20047;-67
2023/07/17 07:33:59;;;;;;;5.13;3.95;;;20.30;99.90;;;;;;4940489;29;20103;-68
2023/07/17 07:36:32;;;;;;;6.43;4.23;;;20.30;99.90;;;;;;4934288;29;20043;-68
2023/07/17 07:38:59;;;;;;;6.70;3.58;;;20.40;99.90;;;;;;4946863;28;20374;-68
2023/07/17 07:41:35;;;;;;;6.43;3.60;;;20.50;99.90;;;;;;4945977;29;20047;-69
2023/07/17 07:44:07;;;;;;;4.28;3.85;;;20.60;99.90;;;;;;4944248;29;20044;-68
2023/07/17 07:46:39;;;;;;;5.18;3.58;;;20.70;99.90;;;;;;4943285;29;20067;-68
2023/07/17 07:49:11;;;;;;;8.75;3.63;;;20.80;99.90;;;;;;4945291;29;20043;-68
2023/07/17 07:51:43;;;;;;;10.02;4.20;;;20.80;99.90;;;;;;4930138;29;20039;-68
2023/07/17 07:54:11;;;;;;;5.50;3.80;;;20.90;99.90;;;;;;4940865;29;20040;-68
2023/07/17 07:56:44;;;;;;;5.20;4.00;;;21.00;99.90;;;;;;4943571;29;20039;-68
2023/07/17 07:59:15;;;;;;;4.63;3.50;;;21.10;99.90;;;;;;4934856;29;20040;-67
2023/07/17 08:01:47;;;;;;;5.47;3.50;;;21.20;99.90;;;;;;4940836;29;20050;-67
2023/07/17 08:04:19;;;;;;;4.57;3.08;;;21.30;99.90;;;;;;4942197;29;20071;-67
2023/07/17 08:06:51;;;;;;;7.50;3.75;;;21.30;99.90;;;;;;4928476;29;20107;-68
2023/07/17 08:09:23;;;;;;;3.72;2.95;;;21.40;99.90;;;;;;4944244;29;20035;-68
2023/07/17 08:11:55;;;;;;;5.50;3.08;;;21.50;99.90;;;;;;4944965;29;20511;-67
2023/07/17 08:14:27;;;;;;;4.68;3.33;;;21.40;99.90;;;;;;4946709;29;20045;-67
2023/07/17 08:16:59;;;;;;;4.10;3.28;;;21.50;99.90;;;;;;4935967;29;20135;-67
2023/07/17 08:19:31;;;;;;;3.83;2.97;;;21.60;99.90;;;;;;4939814;29;20553;-67
2023/07/17 08:22:03;;;;;;;4.35;3.00;;;21.70;99.90;;;;;;4943496;29;20069;-67
2023/07/17 08:24:35;;;;;;;8.48;3.80;;;21.70;99.90;;;;;;4944204;29;20045;-67
2023/07/17 08:27:07;;;;;;;6.05;3.40;;;21.80;99.90;;;;;;4939139;29;20518;-67
2023/07/17 08:29:38;;;;;;;4.00;3.00;;;21.90;99.90;;;;;;4942242;29;20510;-67
2023/07/17 08:32:11;;;;;;;4.72;3.20;;;21.80;99.90;;;;;;4941713;29;20035;-67
2023/07/17 08:34:42;;;;;;;5.45;3.35;;;21.90;99.90;;;;;;4924279;29;20043;-67
2023/07/17 08:37:09;;;;;;;4.97;3.20;;;22.00;99.90;;;;;;4939868;29;20039;-67
2023/07/17 08:39:41;;;;;;;5.18;3.13;;;22.00;99.90;;;;;;4935709;29;20131;-67
2023/07/17 08:42:10;;;;;;;5.32;3.10;;;22.10;99.90;;;;;;4927801;29;20047;-68
2023/07/17 08:44:42;;;;;;;3.95;3.00;;;22.10;99.90;;;;;;4939478;29;20050;-68
2023/07/17 08:47:14;;;;;;;5.55;3.45;;;22.20;99.90;;;;;;4939207;28;20793;-68
2023/07/17 08:49:47;;;;;;;5.15;3.30;;;22.30;99.90;;;;;;4945577;29;20039;-67
2023/07/17 08:52:19;;;;;;;4.40;2.97;;;22.40;99.90;;;;;;4934504;29;20119;-67
2023/07/17 08:54:51;;;;;;;5.95;3.53;;;22.50;99.90;;;;;;4945577;29;20070;-69
2023/07/17 08:57:19;;;;;;;4.57;3.22;;;22.60;99.90;;;;;;4941922;29;20150;-67
2023/07/17 08:59:51;;;;;;;7.22;3.53;;;22.70;99.90;;;;;;4943805;29;20047;-67
2023/07/17 09:02:24;;;;;;;5.18;3.05;;;22.70;99.90;;;;;;4939802;29;20050;-67
2023/07/17 09:04:56;;;;;;;6.35;3.50;;;22.80;99.90;;;;;;4946404;29;20039;-68
2023/07/17 09:07:27;;;;;;;5.90;4.00;;;22.80;99.90;;;;;;4942622;29;20144;-68
2023/07/17 09:10:20;;;;;;;4.25;2.97;;;23.00;99.90;;;;;;4948855;29;20525;-68
2023/07/17 09:12:59;;;;;;;6.47;3.40;;;23.10;99.90;;;;;;4944906;29;20040;-68
2023/07/17 09:15:32;;;;;;;5.80;3.83;;;23.20;99.90;;;;;;4947474;29;20047;-68
2023/07/17 09:18:00;;;;;;;7.18;3.45;;;23.20;99.90;;;;;;4945573;29;20420;-67
2023/07/17 09:20:32;;;;;;;5.00;3.33;;;23.40;99.90;;;;;;4948722;29;20052;-67
2023/07/17 09:23:04;;;;;;;5.80;3.80;;;23.30;99.90;;;;;;4924046;29;20062;-68
2023/07/17 09:25:31;;;;;;;5.85;3.53;;;23.40;99.90;;;;;;4936034;29;20503;-68
2023/07/17 09:28:03;;;;;;;5.20;3.70;;;23.40;99.90;;;;;;4937738;29;20039;-67
2023/07/17 09:30:30;;;;;;;6.95;4.15;;;23.50;99.90;;;;;;4938193;29;20047;-68
2023/07/17 09:33:05;;;;;;;5.68;3.83;;;23.50;99.90;;;;;;4939870;29;20147;-68
2023/07/17 09:35:32;;;;;;;5.00;3.67;;;23.40;99.90;;;;;;4950678;29;20048;-67
2023/07/17 09:37:59;;;;;;;8.70;4.18;;;23.40;99.90;;;;;;4945245;29;20035;-68
2023/07/17 09:40:33;;;;;;;7.55;3.47;;;23.50;99.90;;;;;;4942344;29;20137;-68
2023/07/17 09:43:06;;;;;;;5.32;3.67;;;23.70;99.90;;;;;;4941586;29;20043;-67
2023/07/17 09:45:33;;;;;;;4.95;3.78;;;23.70;99.90;;;;;;4939271;29;20043;-67
2023/07/17 09:48:06;;;;;;;4.95;3.55;;;23.70;99.90;;;;;;4939928;29;20054;-68
2023/07/17 09:50:38;;;;;;;6.80;4.00;;;23.70;99.90;;;;;;4934745;29;20058;-67
2023/07/17 09:53:11;;;;;;;7.15;3.47;;;23.70;99.90;;;;;;4937566;29;20047;-69
2023/07/17 09:55:44;;;;;;;4.75;3.45;;;23.70;99.90;;;;;;4939930;29;20624;-68
2023/07/17 09:58:18;;;;;;;4.70;3.47;;;23.60;99.90;;;;;;4945301;29;20047;-67
2023/07/17 10:00:48;;;;;;;6.60;3.65;;;23.50;99.90;;;;;;4945478;29;20421;-68
2023/07/17 10:03:23;;;;;;;5.88;3.55;;;23.70;99.90;;;;;;4943886;29;20463;-68
2023/07/17 10:05:51;;;;;;;4.03;3.63;;;23.80;99.90;;;;;;4947515;29;20035;-68
2023/07/17 10:08:27;;;;;;;5.20;3.90;;;23.90;99.90;;;;;;4922727;29;20137;-68
2023/07/17 10:10:59;;;;;;;5.20;4.35;;;24.00;99.90;;;;;;4936698;29;20409;-67
2023/07/17 10:13:32;;;;;;;5.65;3.78;;;24.00;99.90;;;;;;4935283;29;20043;-67
2023/07/17 10:16:00;;;;;;;6.43;3.90;;;24.00;99.90;;;;;;4948483;29;20510;-69
2023/07/17 10:18:32;;;;;;;8.07;4.65;;;24.00;99.90;;;;;;4938698;29;20070;-67
2023/07/17 10:21:05;;;;;;;6.20;3.78;;;24.00;99.90;;;;;;4942755;29;20038;-67
2023/07/17 10:23:42;;;;;;;5.55;4.15;;;24.20;99.90;;;;;;4944564;29;20055;-68
2023/07/17 10:26:16;;;;;;;7.55;4.20;;;24.40;99.90;;;;;;4925209;29;20056;-68
2023/07/17 10:28:50;;;;;;;4.85;3.58;;;24.60;99.90;;;;;;4947360;29;20413;-67
2023/07/17 10:31:26;;;;;;;;;;;24.50;99.90;;;;;;4937828;29;20123;-68
2023/07/17 10:34:03;;;;;;;4.47;3.65;;;24.30;99.90;;;;;;4940151;29;19926;-67
2023/07/17 10:36:43;;;;;;;4.97;3.45;;;24.20;99.90;;;;;;4952453;29;20532;-67
2023/07/17 10:39:28;;;;;;;6.25;3.67;;;24.10;99.90;;;;;;4937133;29;20059;-67
2023/07/17 10:42:05;;;;;;;7.45;3.95;;;24.00;99.90;;;;;;4943551;29;20083;-67
2023/07/17 10:44:36;;;;;;;5.00;3.63;;;24.00;99.90;;;;;;4941406;29;20051;-68
2023/07/17 10:47:08;;;;;;;6.30;3.35;;;24.00;99.90;;;;;;4945449;29;20125;-68
2023/07/17 10:49:42;;;;;;;6.10;3.65;;;23.90;99.90;;;;;;4946356;29;20035;-66
2023/07/17 10:52:16;;;;;;;5.05;3.47;;;23.90;99.90;;;;;;4946306;29;20526;-64
2023/07/17 10:54:48;;;;;;;5.07;3.42;;;24.00;99.90;;;;;;4945139;28;20040;-65
2023/07/17 10:57:21;;;;;;;4.05;2.97;;;24.20;99.90;;;;;;4940870;28;20045;-64
2023/07/17 10:59:55;;;;;;;6.22;3.70;;;24.40;99.90;;;;;;4929289;29;20044;-65
2023/07/17 11:02:27;;;;;;;6.50;3.47;;;24.60;99.90;;;;;;4947617;29;20101;-65
2023/07/17 11:05:01;;;;;;;4.72;3.42;;;24.90;99.90;;;;;;4947667;29;20047;-65
2023/07/17 11:07:33;;;;;;;5.68;3.70;;;24.90;99.90;;;;;;4941484;29;20059;-65
2023/07/17 11:10:11;;;;;;;6.57;4.10;;;25.10;99.90;;;;;;4947669;28;20058;-64
2023/07/17 11:12:43;;;;;;;5.95;3.17;;;25.20;99.90;;;;;;4942550;29;20047;-64
2023/07/17 11:15:20;;;;;;;5.72;3.10;;;25.30;99.90;;;;;;4938447;29;20059;-65
2023/07/17 11:17:52;;;;;;;3.83;3.40;;;25.30;99.90;;;;;;4949033;29;20086;-65
2023/07/17 11:20:24;;;;;;;8.70;4.40;;;25.40;99.90;;;;;;4939938;29;20040;-64
2023/07/17 11:22:51;;;;;;;4.90;3.63;;;25.40;99.90;;;;;;4936001;29;20047;-64
2023/07/17 11:25:25;;;;;;;5.68;3.53;;;25.40;99.90;;;;;;4939905;29;20044;-65
2023/07/17 11:28:00;;;;;;;4.95;3.53;;;25.30;99.90;;;;;;4942753;29;20047;-65
2023/07/17 11:30:32;;;;;;;5.90;3.15;;;25.30;99.90;;;;;;4927762;29;20417;-65
2023/07/17 11:33:08;;;;;;;5.45;3.13;;;25.40;99.90;;;;;;4944801;29;20143;-65
2023/07/17 11:35:45;;;;;;;4.32;3.40;;;25.50;99.90;;;;;;4942985;29;20044;-64
2023/07/17 11:38:19;;;;;;;6.55;3.63;;;25.70;99.90;;;;;;4928461;29;20114;-65
2023/07/17 11:40:59;;;;;;;4.38;3.33;;;25.80;99.90;;;;;;4943295;29;20051;-64
2023/07/17 11:43:33;;;;;;;3.63;3.33;;;25.70;99.90;;;;;;4948843;29;20433;-65
2023/07/17 11:46:07;;;;;;;7.13;3.47;;;25.60;99.90;;;;;;4943286;29;20524;-65
2023/07/17 11:48:36;;;;;;;5.15;3.38;;;25.40;99.90;;;;;;4941427;29;20569;-65
2023/07/17 11:51:08;;;;;;;5.65;3.30;;;25.30;99.90;;;;;;4950446;29;20045;-65
2023/07/17 11:53:52;;;;;;;5.15;3.75;;;25.40;99.90;;;;;;4945080;28;20039;-65
2023/07/17 11:56:20;;;;;;;5.10;3.60;;;25.70;99.90;;;;;;4944376;29;20120;-65
2023/07/17 11:58:52;;;;;;;4.25;3.25;;;26.00;99.90;;;;;;4944979;29;20123;-65
2023/07/17 12:01:24;;;;;;;5.00;3.40;;;26.20;99.90;;;;;;4945243;29;20458;-65
2023/07/17 12:03:56;;;;;;;5.10;3.15;;;26.40;99.90;;;;;;4926989;29;20055;-64
2023/07/17 12:06:27;;;;;;;7.00;3.50;;;26.20;99.90;;;;;;4929154;29;20035;-64
2023/07/17 12:08:59;;;;;;;5.70;4.00;;;26.20;99.90;;;;;;4945885;29;20031;-64
2023/07/17 12:11:31;;;;;;;4.90;3.67;;;26.20;99.90;;;;;;4929658;29;20129;-65
2023/07/17 12:14:03;;;;;;;5.07;3.40;;;26.20;99.90;;;;;;4941546;29;20589;-65
2023/07/17 12:16:35;;;;;;;4.68;3.47;;;26.30;99.90;;;;;;4926243;29;20514;-64
2023/07/17 12:19:07;;;;;;;5.72;3.33;;;26.30;99.90;;;;;;4942104;29;20047;-64
2023/07/17 12:21:39;;;;;;;4.93;3.20;;;26.40;99.90;;;;;;4945217;28;20043;-65
2023/07/17 12:24:12;;;;;;;4.93;3.33;;;26.50;99.90;;;;;;4939474;29;20048;-64
2023/07/17 12:26:46;;;;;;;6.30;3.50;;;26.60;99.90;;;;;;4947370;29;20109;-64
2023/07/17 12:29:18;;;;;;;5.95;3.50;;;26.40;99.90;;;;;;4923845;29;20055;-64
2023/07/17 12:31:50;;;;;;;4.60;3.33;;;26.30;99.90;;;;;;4940287;29;20043;-64
2023/07/17 12:34:17;;;;;;;5.18;3.42;;;26.40;99.90;;;;;;4944662;29;20046;-64
2023/07/17 12:36:49;;;;;;;4.78;3.55;;;26.60;99.90;;;;;;4944221;29;20458;-64
2023/07/17 12:39:22;;;;;;;5.90;4.23;;;26.60;99.90;;;;;;4945704;29;20054;-64
2023/07/17 12:41:49;;;;;;;4.60;3.70;;;26.70;99.90;;;;;;4931772;29;20134;-64
2023/07/17 12:44:21;;;;;;;7.28;3.83;;;26.70;99.90;;;;;;4940162;29;20055;-64
2023/07/17 12:46:52;;;;;;;4.57;4.00;;;26.60;99.90;;;;;;4939236;29;20062;-65
2023/07/17 12:49:24;;;;;;;5.53;3.30;;;26.30;99.90;;;;;;4945547;29;20543;-66
2023/07/17 12:51:56;;;;;;;4.00;3.42;;;26.20;99.90;;;;;;4947252;29;20525;-65
2023/07/17 12:54:28;;;;;;;5.43;4.07;;;26.20;99.90;;;;;;4947109;29;20036;-65
2023/07/17 12:57:00;;;;;;;11.07;4.85;;;26.30;99.90;;;;;;4948356;29;20378;-65
2023/07/17 12:59:32;;;;;;;6.53;3.58;;;26.30;99.90;;;;;;4948926;29;20130;-65
2023/07/17 13:02:07;;;;;;;4.30;3.13;;;26.50;99.90;;;;;;4951499;29;20580;-65
2023/07/17 13:04:39;;;;;;;4.10;3.40;;;26.60;99.90;;;;;;4951988;28;20058;-66
2023/07/17 13:07:11;;;;;;;8.23;4.10;;;26.70;99.90;;;;;;4936362;29;20992;-65
2023/07/17 13:09:42;;;;;;;5.18;3.42;;;27.00;99.90;;;;;;4948512;29;20044;-65
2023/07/17 13:12:15;;;;;;;8.50;3.13;;;27.50;99.90;;;;;;4933754;29;20040;-65